sensor_id;sensor_type;location;lat;lon;timestamp;P1;durP1;ratioP1;P2;durP2;ratioP2
2119;SDS011;1066;52.540;13.420;2023-07-31T00:02:23;3.87;;;2.47;;
2119;SDS011;1066;52.540;13.420;2023-07-31T00:05:41;3.17;;;1.90;;
2119;SDS011;1066;52.540;13.420;2023-07-31T00:08:59;3.27;;;2.20;;
2119;SDS011;1066;52.540;13.420;2023-07-31T00:12:21;2.40;;;1.77;;
2119;SDS011;1066;52.540;13.420;2023-07-31T00:15:41;2.90;;;1.90;;
2119;SDS011;1066;52.540;13.420;2023-07-31T00:18:59;2.77;;;1.90;;
2119;SDS011;1066;52.540;13.420;2023-07-31T00:22:17;3.17;;;2.30;;
2119;SDS011;1066;52.540;13.420;2023-07-31T00:25:35;2.10;;;1.43;;
2119;SDS011;1066;52.540;13.420;2023-07-31T00:28:58;2.23;;;1.73;;
2119;SDS011;1066;52.540;13.420;2023-07-31T00:32:19;2.70;;;1.67;;
2119;SDS011;1066;52.540;13.420;2023-07-31T00:35:36;2.30;;;1.67;;
2119;SDS011;1066;52.540;13.420;2023-07-31T00:38:55;4.00;;;2.23;;
2119;SDS011;1066;52.540;13.420;2023-07-31T00:42:16;2.27;;;1.93;;
2119;SDS011;1066;52.540;13.420;2023-07-31T00:45:34;3.50;;;2.27;;
2119;SDS011;1066;52.540;13.420;2023-07-31T00:48:52;2.90;;;2.07;;
2119;SDS011;1066;52.540;13.420;2023-07-31T00:52:12;2.20;;;1.70;;
2119;SDS011;1066;52.540;13.420;2023-07-31T00:55:30;5.10;;;2.00;;
2119;SDS011;1066;52.540;13.420;2023-07-31T00:58:51;2.43;;;1.80;;
2119;SDS011;1066;52.540;13.420;2023-07-31T01:02:11;3.87;;;2.47;;
2119;SDS011;1066;52.540;13.420;2023-07-31T01:05:33;3.57;;;2.10;;
2119;SDS011;1066;52.540;13.420;2023-07-31T01:09:29;2.77;;;2.00;;
2119;SDS011;1066;52.540;13.420;2023-07-31T01:12:51;2.23;;;1.63;;
2119;SDS011;1066;52.540;13.420;2023-07-31T01:16:11;2.23;;;1.83;;
2119;SDS011;1066;52.540;13.420;2023-07-31T01:19:29;3.40;;;2.20;;
2119;SDS011;1066;52.540;13.420;2023-07-31T01:26:12;4.70;;;2.20;;
2119;SDS011;1066;52.540;13.420;2023-07-31T01:30:00;5.13;;;2.10;;
2119;SDS011;1066;52.540;13.420;2023-07-31T01:33:21;3.17;;;2.87;;
2119;SDS011;1066;52.540;13.420;2023-07-31T01:36:38;2.90;;;1.83;;
2119;SDS011;1066;52.540;13.420;2023-07-31T01:39:56;6.17;;;2.30;;
2119;SDS011;1066;52.540;13.420;2023-07-31T01:43:18;3.60;;;2.73;;
2119;SDS011;1066;52.540;13.420;2023-07-31T01:46:36;3.80;;;2.60;;
2119;SDS011;1066;52.540;13.420;2023-07-31T01:49:54;3.83;;;3.13;;
2119;SDS011;1066;52.540;13.420;2023-07-31T01:53:11;3.97;;;2.70;;
2119;SDS011;1066;52.540;13.420;2023-07-31T01:56:30;10.83;;;9.23;;
2119;SDS011;1066;52.540;13.420;2023-07-31T01:59:48;6.93;;;6.23;;
2119;SDS011;1066;52.540;13.420;2023-07-31T02:03:06;3.67;;;2.20;;
2119;SDS011;1066;52.540;13.420;2023-07-31T02:06:23;2.93;;;2.40;;
2119;SDS011;1066;52.540;13.420;2023-07-31T02:09:41;6.20;;;4.83;;
2119;SDS011;1066;52.540;13.420;2023-07-31T02:12:59;4.93;;;2.50;;
2119;SDS011;1066;52.540;13.420;2023-07-31T02:16:17;4.93;;;2.83;;
2119;SDS011;1066;52.540;13.420;2023-07-31T02:19:37;4.03;;;2.60;;
2119;SDS011;1066;52.540;13.420;2023-07-31T02:22:58;4.03;;;2.20;;
2119;SDS011;1066;52.540;13.420;2023-07-31T02:26:15;2.63;;;2.37;;
2119;SDS011;1066;52.540;13.420;2023-07-31T02:29:33;2.30;;;2.10;;
2119;SDS011;1066;52.540;13.420;2023-07-31T02:32:53;3.00;;;2.70;;
2119;SDS011;1066;52.540;13.420;2023-07-31T02:36:11;4.10;;;3.70;;
2119;SDS011;1066;52.540;13.420;2023-07-31T02:39:29;3.97;;;2.73;;
2119;SDS011;1066;52.540;13.420;2023-07-31T02:42:48;5.60;;;3.13;;
2119;SDS011;1066;52.540;13.420;2023-07-31T02:46:06;4.60;;;2.83;;
2119;SDS011;1066;52.540;13.420;2023-07-31T02:49:24;4.63;;;3.63;;
2119;SDS011;1066;52.540;13.420;2023-07-31T02:52:42;3.87;;;2.77;;
2119;SDS011;1066;52.540;13.420;2023-07-31T02:56:02;2.90;;;2.60;;
2119;SDS011;1066;52.540;13.420;2023-07-31T02:59:20;7.40;;;6.67;;
2119;SDS011;1066;52.540;13.420;2023-07-31T03:02:38;6.13;;;5.20;;
2119;SDS011;1066;52.540;13.420;2023-07-31T03:05:56;5.20;;;3.83;;
2119;SDS011;1066;52.540;13.420;2023-07-31T03:09:14;9.97;;;7.80;;
2119;SDS011;1066;52.540;13.420;2023-07-31T03:12:32;5.67;;;3.73;;
2119;SDS011;1066;52.540;13.420;2023-07-31T03:15:50;10.60;;;6.03;;
2119;SDS011;1066;52.540;13.420;2023-07-31T03:19:08;4.53;;;4.13;;
2119;SDS011;1066;52.540;13.420;2023-07-31T03:22:25;8.47;;;6.00;;
2119;SDS011;1066;52.540;13.420;2023-07-31T03:26:16;15.00;;;11.30;;
2119;SDS011;1066;52.540;13.420;2023-07-31T03:29:28;8.03;;;5.90;;
2119;SDS011;1066;52.540;13.420;2023-07-31T03:32:45;13.30;;;8.87;;
2119;SDS011;1066;52.540;13.420;2023-07-31T03:36:03;6.53;;;5.53;;
2119;SDS011;1066;52.540;13.420;2023-07-31T03:39:21;7.50;;;6.00;;
2119;SDS011;1066;52.540;13.420;2023-07-31T03:42:39;6.83;;;5.50;;
2119;SDS011;1066;52.540;13.420;2023-07-31T03:46:00;9.60;;;6.90;;
2119;SDS011;1066;52.540;13.420;2023-07-31T03:49:18;11.83;;;10.50;;
2119;SDS011;1066;52.540;13.420;2023-07-31T03:52:36;9.40;;;8.37;;
2119;SDS011;1066;52.540;13.420;2023-07-31T03:55:54;13.97;;;9.93;;
2119;SDS011;1066;52.540;13.420;2023-07-31T03:59:12;5.97;;;4.67;;
2119;SDS011;1066;52.540;13.420;2023-07-31T04:02:30;9.10;;;7.13;;
2119;SDS011;1066;52.540;13.420;2023-07-31T04:05:47;5.30;;;4.77;;
2119;SDS011;1066;52.540;13.420;2023-07-31T04:09:05;11.10;;;8.53;;
2119;SDS011;1066;52.540;13.420;2023-07-31T04:12:24;7.43;;;6.30;;
2119;SDS011;1066;52.540;13.420;2023-07-31T04:15:42;14.47;;;10.73;;
2119;SDS011;1066;52.540;13.420;2023-07-31T04:18:59;9.27;;;8.07;;
2119;SDS011;1066;52.540;13.420;2023-07-31T04:22:17;6.80;;;5.90;;
2119;SDS011;1066;52.540;13.420;2023-07-31T04:25:35;9.07;;;7.70;;
2119;SDS011;1066;52.540;13.420;2023-07-31T04:28:53;4.73;;;4.23;;
2119;SDS011;1066;52.540;13.420;2023-07-31T04:32:12;5.80;;;5.20;;
2119;SDS011;1066;52.540;13.420;2023-07-31T04:35:30;11.93;;;7.23;;
2119;SDS011;1066;52.540;13.420;2023-07-31T04:38:48;7.13;;;5.50;;
2119;SDS011;1066;52.540;13.420;2023-07-31T04:42:06;10.70;;;8.60;;
2119;SDS011;1066;52.540;13.420;2023-07-31T04:45:23;4.90;;;3.83;;
2119;SDS011;1066;52.540;13.420;2023-07-31T04:48:42;5.70;;;5.03;;
2119;SDS011;1066;52.540;13.420;2023-07-31T04:52:00;6.47;;;4.47;;
2119;SDS011;1066;52.540;13.420;2023-07-31T04:55:17;5.33;;;3.93;;
2119;SDS011;1066;52.540;13.420;2023-07-31T04:58:35;9.87;;;4.50;;
2119;SDS011;1066;52.540;13.420;2023-07-31T05:01:53;7.67;;;3.57;;
2119;SDS011;1066;52.540;13.420;2023-07-31T05:05:11;6.03;;;4.97;;
2119;SDS011;1066;52.540;13.420;2023-07-31T05:08:29;4.43;;;3.73;;
2119;SDS011;1066;52.540;13.420;2023-07-31T05:11:46;5.30;;;4.80;;
2119;SDS011;1066;52.540;13.420;2023-07-31T05:15:04;8.20;;;6.83;;
2119;SDS011;1066;52.540;13.420;2023-07-31T05:18:22;4.87;;;4.40;;
2119;SDS011;1066;52.540;13.420;2023-07-31T05:21:43;8.07;;;6.07;;
2119;SDS011;1066;52.540;13.420;2023-07-31T05:25:01;12.63;;;9.50;;
2119;SDS011;1066;52.540;13.420;2023-07-31T05:28:20;10.30;;;7.73;;
2119;SDS011;1066;52.540;13.420;2023-07-31T05:31:38;4.70;;;3.40;;
2119;SDS011;1066;52.540;13.420;2023-07-31T05:34:56;6.23;;;5.50;;
2119;SDS011;1066;52.540;13.420;2023-07-31T05:38:14;8.73;;;7.07;;
2119;SDS011;1066;52.540;13.420;2023-07-31T05:41:33;28.93;;;20.27;;
2119;SDS011;1066;52.540;13.420;2023-07-31T05:44:51;7.37;;;5.80;;
2119;SDS011;1066;52.540;13.420;2023-07-31T05:48:09;16.10;;;14.03;;
2119;SDS011;1066;52.540;13.420;2023-07-31T05:51:27;18.60;;;13.17;;
2119;SDS011;1066;52.540;13.420;2023-07-31T05:54:45;15.07;;;11.83;;
2119;SDS011;1066;52.540;13.420;2023-07-31T05:58:03;11.97;;;9.57;;
2119;SDS011;1066;52.540;13.420;2023-07-31T06:01:22;9.60;;;7.57;;
2119;SDS011;1066;52.540;13.420;2023-07-31T06:04:40;6.90;;;5.40;;
2119;SDS011;1066;52.540;13.420;2023-07-31T06:07:57;15.53;;;12.03;;
2119;SDS011;1066;52.540;13.420;2023-07-31T06:11:15;4.43;;;4.03;;
2119;SDS011;1066;52.540;13.420;2023-07-31T06:14:33;10.03;;;7.90;;
2119;SDS011;1066;52.540;13.420;2023-07-31T06:17:51;8.20;;;5.30;;
2119;SDS011;1066;52.540;13.420;2023-07-31T06:21:10;11.40;;;8.83;;
2119;SDS011;1066;52.540;13.420;2023-07-31T06:24:28;10.80;;;8.37;;
2119;SDS011;1066;52.540;13.420;2023-07-31T06:27:46;13.33;;;10.63;;
2119;SDS011;1066;52.540;13.420;2023-07-31T06:31:04;9.40;;;5.23;;
2119;SDS011;1066;52.540;13.420;2023-07-31T06:34:22;5.20;;;4.70;;
2119;SDS011;1066;52.540;13.420;2023-07-31T06:37:40;5.27;;;4.67;;
2119;SDS011;1066;52.540;13.420;2023-07-31T06:40:58;8.70;;;7.40;;
2119;SDS011;1066;52.540;13.420;2023-07-31T06:44:16;6.67;;;5.80;;
2119;SDS011;1066;52.540;13.420;2023-07-31T06:47:34;8.87;;;7.27;;
2119;SDS011;1066;52.540;13.420;2023-07-31T06:50:52;9.23;;;6.33;;
2119;SDS011;1066;52.540;13.420;2023-07-31T06:54:09;8.50;;;5.10;;
2119;SDS011;1066;52.540;13.420;2023-07-31T06:57:28;8.13;;;6.73;;
2119;SDS011;1066;52.540;13.420;2023-07-31T07:00:46;12.00;;;7.90;;
2119;SDS011;1066;52.540;13.420;2023-07-31T07:04:04;9.00;;;7.27;;
2119;SDS011;1066;52.540;13.420;2023-07-31T07:07:22;9.83;;;6.70;;
2119;SDS011;1066;52.540;13.420;2023-07-31T07:10:40;15.57;;;6.20;;
2119;SDS011;1066;52.540;13.420;2023-07-31T07:13:58;7.80;;;5.27;;
2119;SDS011;1066;52.540;13.420;2023-07-31T07:17:17;9.53;;;4.90;;
2119;SDS011;1066;52.540;13.420;2023-07-31T07:20:35;11.40;;;5.73;;
2119;SDS011;1066;52.540;13.420;2023-07-31T07:23:53;6.07;;;4.63;;
2119;SDS011;1066;52.540;13.420;2023-07-31T07:27:11;6.00;;;4.43;;
2119;SDS011;1066;52.540;13.420;2023-07-31T07:30:29;6.43;;;5.33;;
2119;SDS011;1066;52.540;13.420;2023-07-31T07:33:47;7.13;;;4.33;;
2119;SDS011;1066;52.540;13.420;2023-07-31T07:37:04;5.60;;;3.70;;
2119;SDS011;1066;52.540;13.420;2023-07-31T07:40:22;5.73;;;3.27;;
2119;SDS011;1066;52.540;13.420;2023-07-31T07:43:40;6.20;;;4.40;;
2119;SDS011;1066;52.540;13.420;2023-07-31T07:46:58;3.67;;;3.30;;
2119;SDS011;1066;52.540;13.420;2023-07-31T07:50:16;7.40;;;3.77;;
2119;SDS011;1066;52.540;13.420;2023-07-31T07:53:34;4.90;;;4.23;;
2119;SDS011;1066;52.540;13.420;2023-07-31T07:56:52;8.10;;;3.77;;
2119;SDS011;1066;52.540;13.420;2023-07-31T08:00:10;5.20;;;3.50;;
2119;SDS011;1066;52.540;13.420;2023-07-31T08:03:28;6.23;;;4.37;;
2119;SDS011;1066;52.540;13.420;2023-07-31T08:06:48;5.60;;;3.87;;
2119;SDS011;1066;52.540;13.420;2023-07-31T08:10:06;3.17;;;2.73;;
2119;SDS011;1066;52.540;13.420;2023-07-31T08:13:24;3.80;;;2.80;;
2119;SDS011;1066;52.540;13.420;2023-07-31T08:16:42;7.27;;;3.23;;
2119;SDS011;1066;52.540;13.420;2023-07-31T08:20:00;3.90;;;2.50;;
2119;SDS011;1066;52.540;13.420;2023-07-31T08:23:17;4.70;;;2.83;;
2119;SDS011;1066;52.540;13.420;2023-07-31T08:26:35;6.00;;;3.10;;
2119;SDS011;1066;52.540;13.420;2023-07-31T08:29:53;4.27;;;2.53;;
2119;SDS011;1066;52.540;13.420;2023-07-31T08:33:11;3.47;;;2.90;;
2119;SDS011;1066;52.540;13.420;2023-07-31T08:36:29;3.10;;;2.63;;
2119;SDS011;1066;52.540;13.420;2023-07-31T08:39:47;4.53;;;3.07;;
2119;SDS011;1066;52.540;13.420;2023-07-31T08:43:05;2.53;;;2.33;;
2119;SDS011;1066;52.540;13.420;2023-07-31T08:46:23;4.80;;;2.93;;
2119;SDS011;1066;52.540;13.420;2023-07-31T08:49:41;3.80;;;3.27;;
2119;SDS011;1066;52.540;13.420;2023-07-31T08:53:00;3.27;;;2.97;;
2119;SDS011;1066;52.540;13.420;2023-07-31T08:56:18;3.20;;;2.47;;
2119;SDS011;1066;52.540;13.420;2023-07-31T08:59:37;3.40;;;3.10;;
2119;SDS011;1066;52.540;13.420;2023-07-31T09:03:03;4.67;;;3.27;;
2119;SDS011;1066;52.540;13.420;2023-07-31T09:06:25;2.90;;;2.30;;
2119;SDS011;1066;52.540;13.420;2023-07-31T09:09:45;3.47;;;2.70;;
2119;SDS011;1066;52.540;13.420;2023-07-31T09:13:11;4.90;;;3.13;;
2119;SDS011;1066;52.540;13.420;2023-07-31T09:16:33;2.70;;;2.17;;
2119;SDS011;1066;52.540;13.420;2023-07-31T09:19:56;3.13;;;2.70;;
2119;SDS011;1066;52.540;13.420;2023-07-31T09:23:27;2.60;;;2.30;;
2119;SDS011;1066;52.540;13.420;2023-07-31T09:26:58;4.53;;;2.73;;
2119;SDS011;1066;52.540;13.420;2023-07-31T09:30:22;4.10;;;3.10;;
2119;SDS011;1066;52.540;13.420;2023-07-31T09:33:53;3.63;;;2.33;;
2119;SDS011;1066;52.540;13.420;2023-07-31T09:37:11;3.40;;;2.40;;
2119;SDS011;1066;52.540;13.420;2023-07-31T09:40:37;2.50;;;2.30;;
2119;SDS011;1066;52.540;13.420;2023-07-31T09:43:56;4.50;;;2.77;;
2119;SDS011;1066;52.540;13.420;2023-07-31T09:47:23;2.67;;;2.47;;
2119;SDS011;1066;52.540;13.420;2023-07-31T09:50:45;3.80;;;2.90;;
2119;SDS011;1066;52.540;13.420;2023-07-31T09:54:16;2.03;;;1.83;;
2119;SDS011;1066;52.540;13.420;2023-07-31T09:57:35;2.60;;;2.40;;
2119;SDS011;1066;52.540;13.420;2023-07-31T10:00:57;3.67;;;2.70;;
2119;SDS011;1066;52.540;13.420;2023-07-31T10:04:15;3.57;;;2.80;;
2119;SDS011;1066;52.540;13.420;2023-07-31T10:07:37;3.50;;;2.73;;
2119;SDS011;1066;52.540;13.420;2023-07-31T10:10:58;4.10;;;3.30;;
2119;SDS011;1066;52.540;13.420;2023-07-31T10:14:20;4.60;;;4.00;;
2119;SDS011;1066;52.540;13.420;2023-07-31T10:17:39;3.53;;;3.23;;
2119;SDS011;1066;52.540;13.420;2023-07-31T10:20:57;5.03;;;4.10;;
2119;SDS011;1066;52.540;13.420;2023-07-31T10:24:18;4.50;;;3.40;;
2119;SDS011;1066;52.540;13.420;2023-07-31T10:27:38;4.57;;;3.93;;
2119;SDS011;1066;52.540;13.420;2023-07-31T10:30:57;4.77;;;3.83;;
2119;SDS011;1066;52.540;13.420;2023-07-31T10:34:15;4.33;;;3.93;;
2119;SDS011;1066;52.540;13.420;2023-07-31T10:37:40;4.60;;;4.07;;
2119;SDS011;1066;52.540;13.420;2023-07-31T10:41:07;3.87;;;3.47;;
2119;SDS011;1066;52.540;13.420;2023-07-31T10:44:35;5.10;;;3.90;;
2119;SDS011;1066;52.540;13.420;2023-07-31T10:51:24;4.33;;;3.60;;
2119;SDS011;1066;52.540;13.420;2023-07-31T10:55:13;4.80;;;3.90;;
2119;SDS011;1066;52.540;13.420;2023-07-31T10:58:30;7.23;;;4.20;;
2119;SDS011;1066;52.540;13.420;2023-07-31T11:01:53;5.80;;;4.20;;
2119;SDS011;1066;52.540;13.420;2023-07-31T11:05:23;6.90;;;4.80;;
2119;SDS011;1066;52.540;13.420;2023-07-31T11:08:58;4.27;;;3.87;;
2119;SDS011;1066;52.540;13.420;2023-07-31T11:12:15;6.63;;;3.87;;
2119;SDS011;1066;52.540;13.420;2023-07-31T11:15:35;4.53;;;3.73;;
2119;SDS011;1066;52.540;13.420;2023-07-31T11:18:53;5.20;;;4.00;;
2119;SDS011;1066;52.540;13.420;2023-07-31T11:22:13;5.37;;;4.00;;
2119;SDS011;1066;52.540;13.420;2023-07-31T11:25:32;5.63;;;3.63;;
2119;SDS011;1066;52.540;13.420;2023-07-31T11:28:50;4.00;;;3.70;;
2119;SDS011;1066;52.540;13.420;2023-07-31T11:32:15;4.40;;;3.20;;
2119;SDS011;1066;52.540;13.420;2023-07-31T11:35:35;5.07;;;4.17;;
2119;SDS011;1066;52.540;13.420;2023-07-31T11:38:53;6.13;;;3.90;;
2119;SDS011;1066;52.540;13.420;2023-07-31T11:42:23;4.50;;;4.10;;
2119;SDS011;1066;52.540;13.420;2023-07-31T11:45:50;4.77;;;3.63;;
2119;SDS011;1066;52.540;13.420;2023-07-31T11:49:08;4.53;;;3.73;;
2119;SDS011;1066;52.540;13.420;2023-07-31T11:52:27;5.30;;;4.20;;
2119;SDS011;1066;52.540;13.420;2023-07-31T11:55:54;3.53;;;2.87;;
2119;SDS011;1066;52.540;13.420;2023-07-31T11:59:14;3.80;;;3.30;;
2119;SDS011;1066;52.540;13.420;2023-07-31T12:02:36;5.37;;;3.63;;
2119;SDS011;1066;52.540;13.420;2023-07-31T12:05:54;4.00;;;3.10;;
2119;SDS011;1066;52.540;13.420;2023-07-31T12:09:13;5.17;;;3.53;;
2119;SDS011;1066;52.540;13.420;2023-07-31T12:12:31;5.13;;;3.80;;
2119;SDS011;1066;52.540;13.420;2023-07-31T12:15:54;5.57;;;4.53;;
2119;SDS011;1066;52.540;13.420;2023-07-31T12:19:13;5.83;;;3.73;;
2119;SDS011;1066;52.540;13.420;2023-07-31T12:22:32;5.10;;;3.70;;
2119;SDS011;1066;52.540;13.420;2023-07-31T12:26:07;6.07;;;3.73;;
2119;SDS011;1066;52.540;13.420;2023-07-31T12:29:33;3.77;;;3.47;;
2119;SDS011;1066;52.540;13.420;2023-07-31T12:32:51;5.40;;;3.80;;
2119;SDS011;1066;52.540;13.420;2023-07-31T12:36:10;5.13;;;3.03;;
2119;SDS011;1066;52.540;13.420;2023-07-31T12:39:29;4.30;;;3.60;;
2119;SDS011;1066;52.540;13.420;2023-07-31T12:42:46;6.07;;;3.47;;
2119;SDS011;1066;52.540;13.420;2023-07-31T12:46:05;3.27;;;2.83;;
2119;SDS011;1066;52.540;13.420;2023-07-31T12:49:23;3.30;;;3.00;;
2119;SDS011;1066;52.540;13.420;2023-07-31T12:52:41;5.10;;;4.40;;
2119;SDS011;1066;52.540;13.420;2023-07-31T12:55:59;6.63;;;3.87;;
2119;SDS011;1066;52.540;13.420;2023-07-31T12:59:17;4.17;;;3.63;;
2119;SDS011;1066;52.540;13.420;2023-07-31T13:02:36;6.67;;;4.00;;
2119;SDS011;1066;52.540;13.420;2023-07-31T13:05:54;6.33;;;4.17;;
2119;SDS011;1066;52.540;13.420;2023-07-31T13:09:12;4.60;;;3.87;;
2119;SDS011;1066;52.540;13.420;2023-07-31T13:12:30;3.57;;;2.90;;
2119;SDS011;1066;52.540;13.420;2023-07-31T13:15:48;3.30;;;3.00;;
2119;SDS011;1066;52.540;13.420;2023-07-31T13:19:06;3.80;;;2.83;;
2119;SDS011;1066;52.540;13.420;2023-07-31T13:22:24;3.30;;;2.77;;
2119;SDS011;1066;52.540;13.420;2023-07-31T13:25:42;2.70;;;2.50;;
2119;SDS011;1066;52.540;13.420;2023-07-31T13:29:05;4.20;;;3.40;;
2119;SDS011;1066;52.540;13.420;2023-07-31T13:32:26;3.37;;;3.03;;
2119;SDS011;1066;52.540;13.420;2023-07-31T13:35:44;3.47;;;2.90;;
2119;SDS011;1066;52.540;13.420;2023-07-31T13:39:02;3.40;;;2.90;;
2119;SDS011;1066;52.540;13.420;2023-07-31T13:42:20;3.97;;;3.13;;
2119;SDS011;1066;52.540;13.420;2023-07-31T13:45:38;4.67;;;3.77;;
2119;SDS011;1066;52.540;13.420;2023-07-31T13:48:59;6.50;;;2.90;;
2119;SDS011;1066;52.540;13.420;2023-07-31T13:52:17;3.60;;;3.17;;
2119;SDS011;1066;52.540;13.420;2023-07-31T13:55:35;4.43;;;3.63;;
2119;SDS011;1066;52.540;13.420;2023-07-31T13:58:53;4.70;;;3.20;;
2119;SDS011;1066;52.540;13.420;2023-07-31T14:02:10;3.97;;;3.50;;
2119;SDS011;1066;52.540;13.420;2023-07-31T14:05:28;4.73;;;3.33;;
2119;SDS011;1066;52.540;13.420;2023-07-31T14:08:46;4.80;;;3.20;;
2119;SDS011;1066;52.540;13.420;2023-07-31T14:12:04;4.70;;;3.33;;
2119;SDS011;1066;52.540;13.420;2023-07-31T14:15:22;5.97;;;3.30;;
2119;SDS011;1066;52.540;13.420;2023-07-31T14:18:40;4.47;;;3.60;;
2119;SDS011;1066;52.540;13.420;2023-07-31T14:21:58;4.67;;;4.23;;
2119;SDS011;1066;52.540;13.420;2023-07-31T14:25:16;4.30;;;3.30;;
2119;SDS011;1066;52.540;13.420;2023-07-31T14:28:37;4.17;;;3.43;;
2119;SDS011;1066;52.540;13.420;2023-07-31T14:31:55;5.30;;;4.20;;
2119;SDS011;1066;52.540;13.420;2023-07-31T14:35:12;3.83;;;2.80;;
2119;SDS011;1066;52.540;13.420;2023-07-31T14:38:30;4.23;;;3.23;;
2119;SDS011;1066;52.540;13.420;2023-07-31T14:41:48;5.23;;;3.50;;
2119;SDS011;1066;52.540;13.420;2023-07-31T14:45:06;6.23;;;5.53;;
2119;SDS011;1066;52.540;13.420;2023-07-31T14:48:25;4.50;;;3.27;;
2119;SDS011;1066;52.540;13.420;2023-07-31T14:51:43;5.60;;;4.47;;
2119;SDS011;1066;52.540;13.420;2023-07-31T14:55:01;6.47;;;3.90;;
2119;SDS011;1066;52.540;13.420;2023-07-31T14:58:22;4.90;;;3.90;;
2119;SDS011;1066;52.540;13.420;2023-07-31T15:01:40;4.67;;;3.90;;
2119;SDS011;1066;52.540;13.420;2023-07-31T15:05:02;3.80;;;3.23;;
2119;SDS011;1066;52.540;13.420;2023-07-31T15:08:20;4.33;;;3.73;;
2119;SDS011;1066;52.540;13.420;2023-07-31T15:11:38;6.43;;;3.90;;
2119;SDS011;1066;52.540;13.420;2023-07-31T15:14:56;3.73;;;3.40;;
2119;SDS011;1066;52.540;13.420;2023-07-31T15:18:14;4.57;;;4.00;;
2119;SDS011;1066;52.540;13.420;2023-07-31T15:21:32;4.37;;;3.97;;
2119;SDS011;1066;52.540;13.420;2023-07-31T15:24:50;4.43;;;3.70;;
2119;SDS011;1066;52.540;13.420;2023-07-31T15:28:08;4.50;;;4.10;;
2119;SDS011;1066;52.540;13.420;2023-07-31T15:31:30;5.53;;;4.17;;
2119;SDS011;1066;52.540;13.420;2023-07-31T15:34:50;4.73;;;3.60;;
2119;SDS011;1066;52.540;13.420;2023-07-31T15:38:08;5.07;;;3.60;;
2119;SDS011;1066;52.540;13.420;2023-07-31T15:41:26;20.70;;;18.57;;
2119;SDS011;1066;52.540;13.420;2023-07-31T15:44:44;24.70;;;22.10;;
2119;SDS011;1066;52.540;13.420;2023-07-31T15:48:02;13.90;;;10.40;;
2119;SDS011;1066;52.540;13.420;2023-07-31T15:51:20;7.03;;;6.33;;
2119;SDS011;1066;52.540;13.420;2023-07-31T15:54:38;10.70;;;9.70;;
2119;SDS011;1066;52.540;13.420;2023-07-31T15:57:56;13.60;;;11.80;;
2119;SDS011;1066;52.540;13.420;2023-07-31T16:01:15;27.77;;;24.73;;
2119;SDS011;1066;52.540;13.420;2023-07-31T16:04:33;23.87;;;21.53;;
2119;SDS011;1066;52.540;13.420;2023-07-31T16:07:54;19.17;;;17.07;;
2119;SDS011;1066;52.540;13.420;2023-07-31T16:11:11;14.77;;;12.50;;
2119;SDS011;1066;52.540;13.420;2023-07-31T16:14:30;9.60;;;8.60;;
2119;SDS011;1066;52.540;13.420;2023-07-31T16:17:48;8.13;;;7.10;;
2119;SDS011;1066;52.540;13.420;2023-07-31T16:21:06;19.10;;;15.90;;
2119;SDS011;1066;52.540;13.420;2023-07-31T16:24:24;14.50;;;12.70;;
2119;SDS011;1066;52.540;13.420;2023-07-31T16:27:42;7.80;;;6.63;;
2119;SDS011;1066;52.540;13.420;2023-07-31T16:30:59;14.60;;;13.03;;
2119;SDS011;1066;52.540;13.420;2023-07-31T16:34:17;11.17;;;10.00;;
2119;SDS011;1066;52.540;13.420;2023-07-31T16:37:35;16.97;;;14.33;;
2119;SDS011;1066;52.540;13.420;2023-07-31T16:40:56;12.00;;;10.27;;
2119;SDS011;1066;52.540;13.420;2023-07-31T16:44:14;8.90;;;7.50;;
2119;SDS011;1066;52.540;13.420;2023-07-31T16:47:33;9.67;;;8.67;;
2119;SDS011;1066;52.540;13.420;2023-07-31T16:50:51;10.83;;;9.13;;
2119;SDS011;1066;52.540;13.420;2023-07-31T16:54:09;10.40;;;8.37;;
2119;SDS011;1066;52.540;13.420;2023-07-31T16:57:27;8.37;;;7.50;;
2119;SDS011;1066;52.540;13.420;2023-07-31T17:00:45;9.90;;;8.40;;
2119;SDS011;1066;52.540;13.420;2023-07-31T17:04:03;5.37;;;4.87;;
2119;SDS011;1066;52.540;13.420;2023-07-31T17:07:21;8.60;;;5.53;;
2119;SDS011;1066;52.540;13.420;2023-07-31T17:10:39;5.03;;;3.87;;
2119;SDS011;1066;52.540;13.420;2023-07-31T17:13:57;7.83;;;7.13;;
2119;SDS011;1066;52.540;13.420;2023-07-31T17:17:15;10.40;;;6.53;;
2119;SDS011;1066;52.540;13.420;2023-07-31T17:20:36;11.07;;;9.77;;
2119;SDS011;1066;52.540;13.420;2023-07-31T17:23:55;10.20;;;9.30;;
2119;SDS011;1066;52.540;13.420;2023-07-31T17:27:13;11.47;;;10.07;;
2119;SDS011;1066;52.540;13.420;2023-07-31T17:30:31;13.10;;;11.10;;
2119;SDS011;1066;52.540;13.420;2023-07-31T17:33:49;12.90;;;10.40;;
2119;SDS011;1066;52.540;13.420;2023-07-31T17:37:08;8.70;;;6.90;;
2119;SDS011;1066;52.540;13.420;2023-07-31T17:40:26;11.13;;;8.70;;
2119;SDS011;1066;52.540;13.420;2023-07-31T17:43:44;7.07;;;6.40;;
2119;SDS011;1066;52.540;13.420;2023-07-31T17:47:02;10.83;;;7.37;;
2119;SDS011;1066;52.540;13.420;2023-07-31T17:50:23;10.40;;;9.30;;
2119;SDS011;1066;52.540;13.420;2023-07-31T17:53:41;9.47;;;8.47;;
2119;SDS011;1066;52.540;13.420;2023-07-31T17:56:58;18.07;;;16.23;;
2119;SDS011;1066;52.540;13.420;2023-07-31T18:00:16;15.70;;;12.37;;
2119;SDS011;1066;52.540;13.420;2023-07-31T18:03:34;7.73;;;6.90;;
2119;SDS011;1066;52.540;13.420;2023-07-31T18:06:52;7.03;;;6.27;;
2119;SDS011;1066;52.540;13.420;2023-07-31T18:10:10;6.70;;;5.13;;
2119;SDS011;1066;52.540;13.420;2023-07-31T18:13:28;9.07;;;7.63;;
2119;SDS011;1066;52.540;13.420;2023-07-31T18:16:49;6.90;;;6.20;;
2119;SDS011;1066;52.540;13.420;2023-07-31T18:20:07;9.13;;;8.13;;
2119;SDS011;1066;52.540;13.420;2023-07-31T18:23:25;7.20;;;5.50;;
2119;SDS011;1066;52.540;13.420;2023-07-31T18:26:43;4.70;;;4.30;;
2119;SDS011;1066;52.540;13.420;2023-07-31T18:30:01;5.27;;;4.77;;
2119;SDS011;1066;52.540;13.420;2023-07-31T18:33:22;10.73;;;6.07;;
2119;SDS011;1066;52.540;13.420;2023-07-31T18:36:43;5.10;;;4.60;;
2119;SDS011;1066;52.540;13.420;2023-07-31T18:40:01;7.30;;;5.57;;
2119;SDS011;1066;52.540;13.420;2023-07-31T18:43:21;6.77;;;6.10;;
2119;SDS011;1066;52.540;13.420;2023-07-31T18:46:39;5.10;;;4.60;;
2119;SDS011;1066;52.540;13.420;2023-07-31T18:49:57;6.93;;;6.17;;
2119;SDS011;1066;52.540;13.420;2023-07-31T18:53:15;6.70;;;5.90;;
2119;SDS011;1066;52.540;13.420;2023-07-31T18:56:33;7.83;;;6.40;;
2119;SDS011;1066;52.540;13.420;2023-07-31T18:59:51;5.87;;;4.30;;
2119;SDS011;1066;52.540;13.420;2023-07-31T19:03:09;6.30;;;5.17;;
2119;SDS011;1066;52.540;13.420;2023-07-31T19:06:29;6.53;;;3.97;;
2119;SDS011;1066;52.540;13.420;2023-07-31T19:09:47;5.33;;;4.80;;
2119;SDS011;1066;52.540;13.420;2023-07-31T19:13:08;6.30;;;4.40;;
2119;SDS011;1066;52.540;13.420;2023-07-31T19:16:26;5.27;;;4.43;;
2119;SDS011;1066;52.540;13.420;2023-07-31T19:19:47;4.93;;;4.50;;
2119;SDS011;1066;52.540;13.420;2023-07-31T19:23:05;7.27;;;4.70;;
2119;SDS011;1066;52.540;13.420;2023-07-31T19:26:23;10.60;;;4.87;;
2119;SDS011;1066;52.540;13.420;2023-07-31T19:29:40;6.10;;;4.17;;
2119;SDS011;1066;52.540;13.420;2023-07-31T19:32:58;4.30;;;3.90;;
2119;SDS011;1066;52.540;13.420;2023-07-31T19:36:16;4.27;;;3.17;;
2119;SDS011;1066;52.540;13.420;2023-07-31T19:39:34;3.80;;;3.23;;
2119;SDS011;1066;52.540;13.420;2023-07-31T19:42:52;4.20;;;3.60;;
2119;SDS011;1066;52.540;13.420;2023-07-31T19:46:10;7.83;;;4.93;;
2119;SDS011;1066;52.540;13.420;2023-07-31T19:49:28;6.50;;;4.70;;
2119;SDS011;1066;52.540;13.420;2023-07-31T19:52:46;5.60;;;4.00;;
2119;SDS011;1066;52.540;13.420;2023-07-31T19:56:07;5.57;;;4.30;;
2119;SDS011;1066;52.540;13.420;2023-07-31T19:59:25;6.33;;;4.53;;
2119;SDS011;1066;52.540;13.420;2023-07-31T20:02:43;7.43;;;5.03;;
2119;SDS011;1066;52.540;13.420;2023-07-31T20:06:01;4.23;;;3.77;;
2119;SDS011;1066;52.540;13.420;2023-07-31T20:09:19;7.47;;;4.33;;
2119;SDS011;1066;52.540;13.420;2023-07-31T20:12:37;7.20;;;5.70;;
2119;SDS011;1066;52.540;13.420;2023-07-31T20:15:55;6.97;;;4.50;;
2119;SDS011;1066;52.540;13.420;2023-07-31T20:19:13;8.30;;;3.23;;
2119;SDS011;1066;52.540;13.420;2023-07-31T20:22:31;5.87;;;4.70;;